Gilman, WI

11:26 AM CDT on September 18, 2014 (GMT -0500)
N Gilman Dr | Change Station
CLOSE
Current Station
Personal Weather Station
Location: Gilman, WI
Elevation: 1237 ft
Nearby Weather Stations

Elev 1237 ft 45.17 °N, 90.82 °W | Updated 46 seconds ago

Overcast
Overcast
49.8 °F
Feels Like 49 °F
N
4.0
Wind Variable Wind from SSE
Gusts 5.0 mph

Today
High -- | Low -- °F
--% Chance of Precip.
Yesterday
High -- | Low -- °F
Precip. -- in
6:45 AM 7:08 PM
Waning Crescent, 26% visible
Pressure 30.18 in
Visibility 10.0 miles
Clouds Overcast 700 ft
Windchill 49 °F
Dew Point 46 °F
Humidity 87%
Rainfall 0.00 in
Snow Depth Not available.
UV 2 out of 12
Pollen 3.90 out of 12
Air Quality Not available.
Flu Activity Not available.
METAR KRCX 181615Z AUTO 14006KT 10SM OVC007 10/09 A3018 RMK AO2 T01030085

More Conditions Fewer Conditions

Pressure 30.18 in
Visibility 10.0 miles
Clouds Overcast 700 ft
Windchill 49 °F
Dew Point 46 °F
Humidity 87%
Rainfall 0.00 in
Snow Depth Not available.
UV 2 out of 12
Pollen 3.90 out of 12
Air Quality Not available.
Flu Activity Not available.
METAR KRCX 181615Z AUTO 14006KT 10SM OVC007 10/09 A3018 RMK AO2 T01030085

More Conditions Fewer Conditions

10-Day Weather Forecast

Almanac

Astronomy

Sep. 18, 2014 Rise Set
Actual Time 6:45 AM CDT 7:08 PM CDT
Civil Twilight 6:15 AM CDT 7:37 PM CDT
Nautical Twilight 5:41 AM CDT 8:12 PM CDT
Astronomical Twilight 5:05 AM CDT 8:48 PM CDT
Moon 1:26 AM CDT 4:09 PM CDT
Length of Visible Light 13h 21m
Length of Day
12h 22m
Tomorrow will be 3m 7s shorter.
Waning Crescent, 26% of the Moon is Illuminated
Today
Waning Crescent
Sep 24
New
Oct 1
First Quarter
Oct 8
Full
Oct 15
Last Quarter

Today's Extremes

State Highs State Lows

Community

WunderPhotos

Upload Photos

1,754,391 photos uploaded!

Nearby

Snow Depth

Station Depth Elevation
No new snow has been reported.

Earthquake Activity

City Distance Mag. Time & Date
No recent earthquake activity has been reported nearby.
Minimum magnitude displayed is 2.5.

Coastal Water Temperatures

Place Temperature
No Stations Reporting

Nearby Weather Stations